Time;durP1;ratioP1;P1;durP2;ratioP2;P2;SDS_P1;SDS_P2;PMS_P1;PMS_P2;Temp;Humidity;BMP_temperature;BMP_pressure;BME280_temperature;BME280_humidity;BME280_pressure;Samples;Min_cycle;Max_cycle;Signal;HPM_P1;HPM_P2
2022/04/04 00:00:43;;;;;;;11.57;9.17;;;;;;;;;;4992772;28;20214;-62
2022/04/04 00:03:10;;;;;;;10.53;8.53;;;;;;;;;;4989826;28;20254;-62
2022/04/04 00:05:39;;;;;;;9.40;7.87;;;;;;;;;;4994250;28;20613;-64
2022/04/04 00:08:06;;;;;;;12.47;9.10;;;;;;;;;;4993012;28;20199;-62
2022/04/04 00:10:34;;;;;;;10.57;8.17;;;;;;;;;;4988173;28;20203;-63
2022/04/04 00:13:02;;;;;;;11.60;8.70;;;;;;;;;;4990430;28;20219;-62
2022/04/04 00:15:29;;;;;;;9.60;8.57;;;;;;;;;;4999534;28;20219;-65
2022/04/04 00:17:57;;;;;;;13.23;9.40;;;;;;;;;;4994668;28;21162;-62
2022/04/04 00:20:27;;;;;;;12.93;9.07;;;;;;;;;;4993012;28;20214;-62
2022/04/04 00:22:54;;;;;;;11.47;9.40;;;;;;;;;;4993469;28;20231;-62
2022/04/04 00:25:22;;;;;;;9.97;8.73;;;;;;;;;;5000379;28;20211;-63
2022/04/04 00:27:50;;;;;;;11.60;9.03;;;;;;;;;;4995885;28;20207;-63
2022/04/04 00:30:18;;;;;;;11.53;9.13;;;;;;;;;;4990971;28;20526;-62
2022/04/04 00:32:46;;;;;;;10.90;9.00;;;;;;;;;;5015510;28;20222;-63
2022/04/04 00:35:13;;;;;;;11.93;9.00;;;;;;;;;;4996624;28;20211;-62
2022/04/04 00:37:41;;;;;;;12.40;9.50;;;;;;;;;;4987784;28;20207;-63
2022/04/04 00:40:08;;;;;;;12.83;8.77;;;;;;;;;;4996958;28;20258;-63
2022/04/04 00:42:35;;;;;;;13.33;9.27;;;;;;;;;;4986659;28;20227;-62
2022/04/04 00:45:03;;;;;;;13.23;9.40;;;;;;;;;;4996560;28;20203;-63
2022/04/04 00:47:30;;;;;;;10.90;8.37;;;;;;;;;;4991784;28;20712;-64
2022/04/04 00:49:58;;;;;;;10.27;8.03;;;;;;;;;;4998655;28;20203;-63
2022/04/04 00:52:26;;;;;;;9.50;8.10;;;;;;;;;;4985360;28;20325;-62
2022/04/04 00:54:53;;;;;;;13.37;8.03;;;;;;;;;;5000320;28;20199;-60
2022/04/04 00:57:21;;;;;;;13.23;8.43;;;;;;;;;;5000665;28;20215;-62
2022/04/04 00:59:50;;;;;;;11.83;8.97;;;;;;;;;;4996644;28;20710;-62
2022/04/04 01:02:17;;;;;;;13.53;8.63;;;;;;;;;;4992407;28;20858;-61
2022/04/04 01:04:45;;;;;;;11.70;8.77;;;;;;;;;;4995356;28;20227;-63
2022/04/04 01:07:13;;;;;;;11.50;9.40;;;;;;;;;;5000215;28;20712;-64
2022/04/04 01:09:40;;;;;;;13.27;8.83;;;;;;;;;;4989225;28;20202;-62
2022/04/04 01:12:13;;;;;;;14.33;9.43;;;;;;;;;;4975423;28;20798;-62
2022/04/04 01:14:48;;;;;;;11.80;8.40;;;;;;;;;;4989686;28;21329;-61
2022/04/04 01:17:18;;;;;;;13.37;8.67;;;;;;;;;;5010951;28;20206;-62
2022/04/04 01:19:46;;;;;;;14.57;8.53;;;;;;;;;;4998614;28;20721;-61
2022/04/04 01:22:14;;;;;;;11.30;9.37;;;;;;;;;;4998894;28;20225;-65
2022/04/04 01:24:42;;;;;;;10.70;7.87;;;;;;;;;;4999256;28;20209;-63
2022/04/04 01:27:11;;;;;;;12.07;8.47;;;;;;;;;;4991201;28;20616;-64
2022/04/04 01:29:39;;;;;;;11.03;8.27;;;;;;;;;;4999272;28;20219;-62
2022/04/04 01:32:07;;;;;;;11.73;8.63;;;;;;;;;;4993084;28;20219;-62
2022/04/04 01:34:35;;;;;;;11.83;8.63;;;;;;;;;;4990688;28;20211;-63
2022/04/04 01:37:03;;;;;;;13.00;8.93;;;;;;;;;;4997306;28;20269;-63
2022/04/04 01:39:31;;;;;;;12.30;8.87;;;;;;;;;;4994519;28;20712;-64
2022/04/04 01:41:59;;;;;;;10.40;8.10;;;;;;;;;;4988846;28;20270;-65
2022/04/04 01:44:26;;;;;;;10.50;8.30;;;;;;;;;;4989284;28;20668;-62
2022/04/04 01:46:53;;;;;;;10.93;8.90;;;;;;;;;;5001138;28;20229;-62
2022/04/04 01:49:21;;;;;;;12.23;9.00;;;;;;;;;;4996048;28;20211;-61
2022/04/04 01:51:48;;;;;;;11.00;8.53;;;;;;;;;;4998539;28;20227;-61
2022/04/04 01:54:16;;;;;;;11.47;8.97;;;;;;;;;;4993759;28;20207;-65
2022/04/04 01:56:43;;;;;;;12.63;8.47;;;;;;;;;;4989075;28;20305;-64
2022/04/04 01:59:11;;;;;;;10.67;8.83;;;;;;;;;;4994897;28;20206;-61
2022/04/04 02:01:39;;;;;;;12.63;8.53;;;;;;;;;;4996864;28;20320;-64
2022/04/04 02:04:09;;;;;;;11.90;9.07;;;;;;;;;;4999577;28;20246;-63
2022/04/04 02:06:36;;;;;;;15.00;9.50;;;;;;;;;;4993557;28;20280;-64
2022/04/04 02:09:04;;;;;;;16.77;9.77;;;;;;;;;;4996061;28;20218;-63
2022/04/04 02:11:31;;;;;;;16.50;10.53;;;;;;;;;;4993886;28;20238;-65
2022/04/04 02:14:02;;;;;;;12.07;9.47;;;;;;;;;;4998209;28;20207;-64
2022/04/04 02:16:29;;;;;;;15.83;9.10;;;;;;;;;;5003456;28;20212;-62
2022/04/04 02:18:56;;;;;;;12.03;8.90;;;;;;;;;;4992782;28;20226;-62
2022/04/04 02:21:24;;;;;;;11.47;9.17;;;;;;;;;;5006935;28;20235;-62
2022/04/04 02:23:52;;;;;;;11.23;8.10;;;;;;;;;;4992372;28;20211;-63
2022/04/04 02:26:20;;;;;;;9.73;7.07;;;;;;;;;;5003163;28;20230;-61
2022/04/04 02:28:48;;;;;;;10.47;7.27;;;;;;;;;;4998196;28;20246;-62
2022/04/04 02:31:15;;;;;;;12.43;8.40;;;;;;;;;;4997495;28;20591;-64
2022/04/04 02:33:43;;;;;;;13.60;8.60;;;;;;;;;;4999320;28;20218;-63
2022/04/04 02:36:11;;;;;;;14.80;9.40;;;;;;;;;;5004652;28;20245;-62
2022/04/04 02:38:40;;;;;;;13.13;9.00;;;;;;;;;;4997841;28;20244;-62
2022/04/04 02:41:08;;;;;;;14.20;9.60;;;;;;;;;;4998762;28;20610;-64
2022/04/04 02:43:35;;;;;;;11.67;8.80;;;;;;;;;;4991622;28;20210;-63
2022/04/04 02:46:02;;;;;;;13.73;8.70;;;;;;;;;;4992437;28;20608;-62
2022/04/04 02:48:30;;;;;;;16.17;10.47;;;;;;;;;;4995791;28;20222;-64
2022/04/04 02:50:57;;;;;;;15.47;9.33;;;;;;;;;;5004046;28;20202;-63
2022/04/04 02:53:25;;;;;;;17.50;12.70;;;;;;;;;;4998549;28;20247;-65
2022/04/04 02:58:38;;;;;;;14.87;10.23;;;;;;;;;;5019505;28;20202;-64
2022/04/04 03:01:06;;;;;;;14.87;9.37;;;;;;;;;;5001157;28;20306;-63
2022/04/04 03:03:33;;;;;;;11.10;7.90;;;;;;;;;;5004106;28;20298;-61
2022/04/04 03:06:00;;;;;;;11.77;8.20;;;;;;;;;;4988046;28;20199;-62
2022/04/04 03:08:28;;;;;;;12.87;8.10;;;;;;;;;;4997424;28;20203;-63
2022/04/04 03:10:55;;;;;;;13.13;8.43;;;;;;;;;;4996387;28;20219;-62
2022/04/04 03:13:23;;;;;;;12.10;8.87;;;;;;;;;;4989244;28;20607;-62
2022/04/04 03:15:50;;;;;;;13.97;9.30;;;;;;;;;;4987309;28;20265;-61
2022/04/04 03:18:18;;;;;;;14.47;9.80;;;;;;;;;;4991189;28;20736;-64
2022/04/04 03:20:50;;;;;;;16.07;11.50;;;;;;;;;;4993747;28;20214;-63
2022/04/04 03:23:18;;;;;;;20.27;12.67;;;;;;;;;;5000662;28;20202;-63
2022/04/04 03:25:46;;;;;;;21.63;13.30;;;;;;;;;;4991623;28;20207;-63
2022/04/04 03:28:13;;;;;;;22.60;13.10;;;;;;;;;;4990392;28;20628;-63
2022/04/04 03:30:41;;;;;;;21.30;12.83;;;;;;;;;;5000237;28;20234;-65
2022/04/04 03:33:08;;;;;;;28.73;15.67;;;;;;;;;;4986825;28;20226;-62
2022/04/04 03:35:36;;;;;;;19.43;12.57;;;;;;;;;;4995901;28;20235;-61
2022/04/04 03:38:06;;;;;;;18.30;11.97;;;;;;;;;;4997893;28;20203;-62
2022/04/04 03:40:34;;;;;;;14.27;9.67;;;;;;;;;;4984589;28;20218;-61
2022/04/04 03:43:01;;;;;;;12.30;8.83;;;;;;;;;;4993608;28;20645;-63
2022/04/04 03:45:29;;;;;;;14.93;8.50;;;;;;;;;;4988265;28;20207;-62
2022/04/04 03:47:56;;;;;;;13.63;9.33;;;;;;;;;;4989492;28;20289;-64
2022/04/04 03:50:24;;;;;;;13.60;8.50;;;;;;;;;;5000101;28;21800;-63
2022/04/04 03:52:53;;;;;;;11.80;9.07;;;;;;;;;;4989888;28;20286;-61
2022/04/04 03:55:21;;;;;;;14.77;8.97;;;;;;;;;;4993013;28;20200;-62
2022/04/04 03:57:49;;;;;;;14.67;9.77;;;;;;;;;;5000343;28;20964;-61
2022/04/04 04:00:18;;;;;;;15.20;9.33;;;;;;;;;;4989493;28;20219;-63
2022/04/04 04:02:45;;;;;;;12.47;9.20;;;;;;;;;;4999998;28;20242;-63
2022/04/04 04:05:13;;;;;;;11.93;8.83;;;;;;;;;;4994324;28;20216;-63
2022/04/04 04:07:40;;;;;;;17.13;11.13;;;;;;;;;;4989843;28;20241;-62
2022/04/04 04:10:11;;;;;;;14.90;11.87;;;;;;;;;;4990149;28;20976;-64
2022/04/04 04:12:42;;;;;;;16.17;10.30;;;;;;;;;;4998436;28;20226;-62
2022/04/04 04:15:11;;;;;;;16.00;10.57;;;;;;;;;;4986941;28;20212;-63
2022/04/04 04:17:39;;;;;;;32.17;15.40;;;;;;;;;;4991976;28;20204;-62
2022/04/04 04:20:29;;;;;;;23.73;13.77;;;;;;;;;;4991443;28;20221;-63
2022/04/04 04:23:02;;;;;;;22.73;10.23;;;;;;;;;;4998705;28;20261;-64
2022/04/04 04:25:30;;;;;;;13.73;10.60;;;;;;;;;;4995473;28;20228;-65
2022/04/04 04:28:02;;;;;;;15.87;9.93;;;;;;;;;;4982485;28;20227;-62
2022/04/04 04:30:30;;;;;;;15.83;10.50;;;;;;;;;;4992844;28;20206;-61
2022/04/04 04:32:58;;;;;;;13.03;9.33;;;;;;;;;;5011339;28;20228;-62
2022/04/04 04:35:26;;;;;;;11.80;8.30;;;;;;;;;;4991929;28;20234;-61
2022/04/04 04:37:54;;;;;;;12.40;8.17;;;;;;;;;;4990628;28;23028;-63
2022/04/04 04:40:22;;;;;;;10.60;8.07;;;;;;;;;;4992499;28;20231;-62
2022/04/04 04:42:50;;;;;;;11.93;7.87;;;;;;;;;;4996600;28;20232;-63
2022/04/04 04:45:18;;;;;;;10.23;7.67;;;;;;;;;;5013646;28;20216;-63
2022/04/04 04:47:45;;;;;;;13.30;7.77;;;;;;;;;;5006078;28;20240;-62
2022/04/04 04:50:14;;;;;;;11.90;8.43;;;;;;;;;;5014826;28;20238;-64
2022/04/04 04:52:42;;;;;;;18.23;9.83;;;;;;;;;;4988578;28;20229;-62
2022/04/04 04:55:10;;;;;;;19.23;11.20;;;;;;;;;;4997714;28;20210;-64
2022/04/04 04:57:38;;;;;;;15.87;10.60;;;;;;;;;;5004667;28;20211;-62
2022/04/04 05:00:06;;;;;;;13.93;9.90;;;;;;;;;;4996198;28;20210;-62
2022/04/04 05:02:34;;;;;;;15.60;10.63;;;;;;;;;;5002489;28;20241;-63
2022/04/04 05:05:04;;;;;;;13.07;10.07;;;;;;;;;;5008147;28;20300;-65
2022/04/04 05:07:32;;;;;;;13.73;10.20;;;;;;;;;;5002634;28;20229;-64
2022/04/04 05:10:00;;;;;;;15.43;11.37;;;;;;;;;;5008335;28;20828;-63
2022/04/04 05:12:27;;;;;;;17.07;11.63;;;;;;;;;;5000848;28;20218;-65
2022/04/04 05:14:55;;;;;;;16.90;11.03;;;;;;;;;;5006181;28;20679;-63
2022/04/04 05:17:23;;;;;;;15.30;10.67;;;;;;;;;;5013856;28;20711;-63
2022/04/04 05:19:57;;;;;;;16.43;10.47;;;;;;;;;;5012597;28;20208;-63
2022/04/04 05:22:24;;;;;;;15.87;10.50;;;;;;;;;;5012920;28;20631;-62
2022/04/04 05:24:52;;;;;;;14.70;9.80;;;;;;;;;;5013854;28;20198;-61
2022/04/04 05:27:19;;;;;;;14.07;9.63;;;;;;;;;;5007395;28;20230;-63
2022/04/04 05:29:46;;;;;;;15.77;10.53;;;;;;;;;;5014230;28;20294;-63
2022/04/04 05:32:14;;;;;;;16.10;9.87;;;;;;;;;;5011180;28;20258;-64
2022/04/04 05:34:41;;;;;;;17.43;10.87;;;;;;;;;;4998782;28;20202;-65
2022/04/04 05:37:09;;;;;;;15.27;10.27;;;;;;;;;;4997262;28;20203;-62
2022/04/04 05:39:36;;;;;;;12.37;8.90;;;;;;;;;;5013121;28;20202;-63
2022/04/04 05:42:03;;;;;;;16.07;9.17;;;;;;;;;;4999278;28;20253;-62
2022/04/04 05:44:32;;;;;;;14.40;8.23;;;;;;;;;;5005573;28;20210;-61
2022/04/04 05:47:00;;;;;;;15.17;8.90;;;;;;;;;;5004597;28;20230;-61
2022/04/04 05:49:27;;;;;;;14.07;7.87;;;;;;;;;;5007568;28;20642;-63
2022/04/04 05:51:55;;;;;;;11.73;8.70;;;;;;;;;;5010631;28;20284;-63
2022/04/04 05:54:30;;;;;;;18.50;9.20;;;;;;;;;;5005604;28;20213;-62
2022/04/04 05:56:57;;;;;;;18.20;9.43;;;;;;;;;;5006549;28;20233;-62
2022/04/04 05:59:25;;;;;;;14.17;8.83;;;;;;;;;;5011492;28;20214;-62
2022/04/04 06:01:53;;;;;;;14.33;9.77;;;;;;;;;;4996156;28;20254;-63
2022/04/04 06:04:20;;;;;;;17.10;10.00;;;;;;;;;;5002533;28;20754;-61
2022/04/04 06:06:48;;;;;;;15.47;10.27;;;;;;;;;;5008553;28;20680;-62
2022/04/04 06:09:15;;;;;;;21.40;12.77;;;;;;;;;;5000155;28;20601;-61
2022/04/04 06:11:42;;;;;;;24.70;12.93;;;;;;;;;;4995916;28;20218;-61
2022/04/04 06:14:10;;;;;;;16.50;11.17;;;;;;;;;;4999623;28;20203;-64
2022/04/04 06:16:37;;;;;;;15.87;10.83;;;;;;;;;;5007399;28;20207;-61
2022/04/04 06:19:04;;;;;;;18.50;12.30;;;;;;;;;;5003274;28;20212;-63
2022/04/04 06:21:32;;;;;;;18.17;11.70;;;;;;;;;;5008187;28;20231;-63
2022/04/04 06:23:59;;;;;;;15.27;9.93;;;;;;;;;;5014094;28;20253;-61
2022/04/04 06:26:28;;;;;;;11.30;7.60;;;;;;;;;;5011415;28;20215;-64
2022/04/04 06:28:56;;;;;;;9.37;6.70;;;;;;;;;;5003633;28;20704;-63
2022/04/04 06:31:23;;;;;;;11.33;6.90;;;;;;;;;;5002366;28;20899;-63
2022/04/04 06:33:50;;;;;;;8.20;6.60;;;;;;;;;;4999059;28;20240;-63
2022/04/04 06:36:21;;;;;;;12.00;6.83;;;;;;;;;;5007210;28;20601;-61
2022/04/04 06:38:50;;;;;;;9.67;6.57;;;;;;;;;;5003871;28;20234;-62
2022/04/04 06:41:18;;;;;;;9.73;5.80;;;;;;;;;;5014000;23;20652;-64
2022/04/04 06:43:45;;;;;;;11.60;7.93;;;;;;;;;;5020368;28;20210;-64
2022/04/04 06:46:16;;;;;;;11.33;7.30;;;;;;;;;;5040719;28;20246;-68
2022/04/04 06:48:50;;;;;;;10.93;8.67;;;;;;;;;;5025650;28;20604;-64
2022/04/04 06:51:19;;;;;;;24.77;14.87;;;;;;;;;;5028893;28;20783;-64
2022/04/04 06:53:47;;;;;;;17.70;12.00;;;;;;;;;;5016904;28;20212;-64
2022/04/04 06:56:14;;;;;;;15.47;9.63;;;;;;;;;;5021913;28;20259;-64
2022/04/04 06:58:42;;;;;;;8.47;6.80;;;;;;;;;;5015647;28;20214;-65
2022/04/04 07:01:09;;;;;;;8.00;6.10;;;;;;;;;;5028283;28;20203;-64
2022/04/04 07:03:37;;;;;;;9.13;7.30;;;;;;;;;;5017275;28;20223;-63
2022/04/04 07:06:05;;;;;;;7.83;5.77;;;;;;;;;;5013232;28;20220;-64
2022/04/04 07:08:33;;;;;;;9.50;6.97;;;;;;;;;;5006689;28;20231;-63
2022/04/04 07:11:01;;;;;;;8.13;5.93;;;;;;;;;;5013581;28;20348;-64
2022/04/04 07:13:31;;;;;;;10.10;6.63;;;;;;;;;;5022954;28;20221;-65
2022/04/04 07:15:59;;;;;;;7.93;6.53;;;;;;;;;;5027414;28;20272;-64
2022/04/04 07:18:26;;;;;;;9.90;7.43;;;;;;;;;;5023027;28;20737;-64
2022/04/04 07:20:53;;;;;;;10.07;7.30;;;;;;;;;;5022574;28;20214;-65
2022/04/04 07:23:21;;;;;;;9.23;7.13;;;;;;;;;;5030967;28;20212;-64
2022/04/04 07:25:50;;;;;;;8.53;6.63;;;;;;;;;;5024898;28;20210;-65
2022/04/04 07:28:17;;;;;;;8.70;6.57;;;;;;;;;;5014470;28;20597;-64
2022/04/04 07:30:44;;;;;;;8.70;6.93;;;;;;;;;;5026246;28;20234;-64
2022/04/04 07:33:15;;;;;;;6.97;6.23;;;;;;;;;;5021053;28;23006;-64
2022/04/04 07:35:44;;;;;;;7.20;6.20;;;;;;;;;;5026484;28;20207;-63
2022/04/04 07:38:11;;;;;;;10.57;6.67;;;;;;;;;;5026466;28;20210;-64
2022/04/04 07:40:40;;;;;;;8.03;5.77;;;;;;;;;;5025542;28;20265;-64
2022/04/04 07:43:08;;;;;;;7.40;6.03;;;;;;;;;;5023162;28;20234;-64
2022/04/04 07:45:35;;;;;;;9.23;6.43;;;;;;;;;;5026438;28;20207;-64
2022/04/04 07:48:10;;;;;;;8.70;5.70;;;;;;;;;;5029234;28;20214;-64
2022/04/04 07:50:38;;;;;;;7.43;6.10;;;;;;;;;;5026796;28;20218;-65
2022/04/04 07:53:06;;;;;;;11.27;6.50;;;;;;;;;;5022780;28;20223;-65
2022/04/04 07:55:36;;;;;;;10.47;8.10;;;;;;;;;;5027163;28;20270;-65
2022/04/04 07:58:04;;;;;;;9.83;7.70;;;;;;;;;;5012514;28;20211;-65
2022/04/04 08:00:32;;;;;;;8.67;6.73;;;;;;;;;;5020642;28;20832;-64
2022/04/04 08:02:59;;;;;;;8.90;6.67;;;;;;;;;;5021333;28;20289;-65
2022/04/04 08:05:27;;;;;;;6.20;5.60;;;;;;;;;;5026151;28;20299;-64
2022/04/04 08:07:54;;;;;;;7.27;6.17;;;;;;;;;;5022476;28;20237;-64
2022/04/04 08:10:25;;;;;;;7.10;6.37;;;;;;;;;;5028721;28;20278;-65
2022/04/04 08:12:54;;;;;;;10.90;5.77;;;;;;;;;;5010696;28;20263;-65
2022/04/04 08:15:22;;;;;;;6.00;5.40;;;;;;;;;;5024052;28;21289;-65
2022/04/04 08:17:55;;;;;;;6.50;5.80;;;;;;;;;;5025215;28;20294;-64
2022/04/04 08:20:23;;;;;;;6.77;5.57;;;;;;;;;;5011900;28;20202;-63
2022/04/04 08:22:50;;;;;;;6.13;5.50;;;;;;;;;;5012520;28;20235;-64
2022/04/04 08:25:18;;;;;;;8.00;5.50;;;;;;;;;;5021457;28;20213;-64
2022/04/04 08:27:46;;;;;;;6.40;5.43;;;;;;;;;;5028441;28;20222;-64
2022/04/04 08:30:15;;;;;;;5.90;5.30;;;;;;;;;;5025064;28;20768;-64
2022/04/04 08:32:42;;;;;;;9.17;5.43;;;;;;;;;;5020520;28;20223;-65
2022/04/04 08:35:11;;;;;;;9.47;5.70;;;;;;;;;;5027572;28;20229;-64
2022/04/04 08:37:41;;;;;;;6.07;5.40;;;;;;;;;;5028312;28;20210;-65
2022/04/04 08:40:10;;;;;;;6.50;5.60;;;;;;;;;;5019090;28;20215;-64
2022/04/04 08:42:38;;;;;;;5.93;5.33;;;;;;;;;;5028289;28;20230;-65
2022/04/04 08:45:06;;;;;;;5.90;5.30;;;;;;;;;;5021756;28;20246;-65
2022/04/04 08:47:33;;;;;;;7.03;5.87;;;;;;;;;;5017427;28;20198;-64
2022/04/04 08:50:02;;;;;;;6.63;5.53;;;;;;;;;;5024499;28;20637;-64
2022/04/04 08:52:29;;;;;;;6.83;5.27;;;;;;;;;;5028187;28;20226;-65
2022/04/04 08:54:57;;;;;;;7.03;6.17;;;;;;;;;;5023850;28;20241;-65
2022/04/04 08:57:24;;;;;;;7.90;6.90;;;;;;;;;;5018965;28;20203;-64
2022/04/04 08:59:51;;;;;;;6.53;5.93;;;;;;;;;;5029072;28;20206;-63
2022/04/04 09:02:19;;;;;;;7.20;6.40;;;;;;;;;;5023508;28;20229;-64
2022/04/04 09:04:51;;;;;;;9.00;6.43;;;;;;;;;;5016978;28;20219;-64
2022/04/04 09:07:21;;;;;;;7.30;6.40;;;;;;;;;;5017597;28;20454;-64
2022/04/04 09:09:50;;;;;;;7.60;6.23;;;;;;;;;;5020409;28;20200;-64
2022/04/04 09:12:19;;;;;;;6.10;5.50;;;;;;;;;;5015550;28;20298;-65
2022/04/04 09:14:57;;;;;;;7.83;5.93;;;;;;;;;;5020513;28;20216;-64
2022/04/04 09:17:27;;;;;;;6.20;5.40;;;;;;;;;;5024875;28;20234;-64
2022/04/04 09:19:55;;;;;;;6.77;5.83;;;;;;;;;;5030329;28;20236;-65
2022/04/04 09:22:22;;;;;;;7.63;5.53;;;;;;;;;;5021183;28;20236;-63
2022/04/04 09:24:50;;;;;;;5.83;5.20;;;;;;;;;;5018543;28;20296;-64
2022/04/04 09:27:25;;;;;;;7.33;5.83;;;;;;;;;;5025276;28;20240;-63
2022/04/04 09:29:56;;;;;;;5.90;5.07;;;;;;;;;;5007372;28;20336;-63
2022/04/04 09:32:35;;;;;;;6.47;5.70;;;;;;;;;;5019490;28;20245;-64
2022/04/04 09:35:12;;;;;;;8.37;5.87;;;;;;;;;;5012835;28;20264;-64
2022/04/04 09:37:41;;;;;;;5.37;4.87;;;;;;;;;;5014899;28;20200;-64
2022/04/04 09:40:10;;;;;;;7.13;5.40;;;;;;;;;;5022354;28;20220;-64
2022/04/04 09:42:41;;;;;;;7.53;5.53;;;;;;;;;;5018090;28;20669;-65
2022/04/04 09:45:13;;;;;;;7.73;5.90;;;;;;;;;;5017008;28;20224;-64
2022/04/04 09:47:56;;;;;;;6.00;5.40;;;;;;;;;;5015845;28;20216;-63
2022/04/04 09:50:31;;;;;;;7.40;5.10;;;;;;;;;;5010028;28;20241;-62
2022/04/04 09:52:59;;;;;;;6.90;5.63;;;;;;;;;;5018681;28;20232;-65
2022/04/04 09:55:46;;;;;;;5.53;4.97;;;;;;;;;;5014938;28;20219;-64
2022/04/04 09:58:15;;;;;;;6.03;4.47;;;;;;;;;;5018054;28;20212;-65
2022/04/04 10:00:44;;;;;;;4.93;4.43;;;;;;;;;;5021109;28;20210;-64
2022/04/04 10:03:13;;;;;;;5.00;4.50;;;;;;;;;;5021315;28;20736;-64
2022/04/04 10:05:42;;;;;;;5.23;4.73;;;;;;;;;;5013071;28;20332;-65
2022/04/04 10:08:10;;;;;;;5.80;4.90;;;;;;;;;;5021011;28;21651;-65
2022/04/04 10:10:38;;;;;;;5.00;4.50;;;;;;;;;;5014640;28;20294;-67
2022/04/04 10:13:05;;;;;;;6.07;4.90;;;;;;;;;;5008648;28;20225;-64
2022/04/04 10:15:36;;;;;;;5.43;4.93;;;;;;;;;;5021482;28;20209;-64
2022/04/04 10:18:03;;;;;;;5.80;5.00;;;;;;;;;;5012699;28;20260;-65
2022/04/04 10:20:31;;;;;;;5.10;4.60;;;;;;;;;;5008551;28;20216;-64
2022/04/04 10:22:59;;;;;;;5.63;5.00;;;;;;;;;;5014219;28;20231;-66
2022/04/04 10:25:27;;;;;;;5.93;5.00;;;;;;;;;;5025308;28;20213;-63
2022/04/04 10:27:55;;;;;;;5.63;4.77;;;;;;;;;;5008374;28;20206;-66
2022/04/04 10:30:36;;;;;;;6.10;5.50;;;;;;;;;;5014163;28;20208;-64
2022/04/04 10:33:03;;;;;;;5.40;4.90;;;;;;;;;;5008863;28;20225;-64
2022/04/04 10:35:32;;;;;;;6.33;5.60;;;;;;;;;;5017472;28;20210;-63
2022/04/04 10:38:04;;;;;;;5.73;5.20;;;;;;;;;;5018534;28;20678;-65
2022/04/04 10:40:32;;;;;;;6.53;4.83;;;;;;;;;;5005399;28;20199;-64
2022/04/04 10:43:03;;;;;;;6.27;5.67;;;;;;;;;;5016278;28;20222;-64
2022/04/04 10:45:31;;;;;;;5.73;4.70;;;;;;;;;;5021688;28;20214;-64
2022/04/04 10:48:06;;;;;;;5.87;5.27;;;;;;;;;;5016234;28;20677;-64
2022/04/04 10:50:35;;;;;;;6.00;5.23;;;;;;;;;;5010603;28;20211;-64
2022/04/04 10:53:03;;;;;;;6.63;5.43;;;;;;;;;;5018359;28;20703;-64
2022/04/04 10:55:37;;;;;;;5.97;5.47;;;;;;;;;;5023997;28;20202;-65
2022/04/04 10:58:08;;;;;;;6.20;5.33;;;;;;;;;;5014291;28;20397;-64
2022/04/04 11:00:52;;;;;;;6.17;5.57;;;;;;;;;;5013346;28;20314;-66
2022/04/04 11:03:30;;;;;;;5.73;5.13;;;;;;;;;;5016619;28;20298;-66
2022/04/04 11:09:00;;;;;;;6.17;5.63;;;;;;;;;;5020699;28;20227;-64
2022/04/04 11:11:50;;;;;;;7.67;6.23;;;;;;;;;;5017084;28;20227;-65
2022/04/04 11:14:19;;;;;;;5.70;5.20;;;;;;;;;;5018525;28;20203;-64
2022/04/04 11:17:05;;;;;;;5.90;5.30;;;;;;;;;;5027090;28;20199;-66
2022/04/04 11:19:57;;;;;;;5.97;5.37;;;;;;;;;;5031577;28;20707;-64
2022/04/04 11:22:26;;;;;;;6.57;5.97;;;;;;;;;;4993535;28;20591;-65
2022/04/04 11:25:03;;;;;;;6.70;5.70;;;;;;;;;;5024548;28;20233;-65
2022/04/04 11:27:33;;;;;;;6.33;5.73;;;;;;;;;;5034358;28;20201;-64
2022/04/04 11:30:05;;;;;;;6.63;5.93;;;;;;;;;;5020724;28;20227;-64
2022/04/04 11:32:34;;;;;;;7.40;6.43;;;;;;;;;;5038124;28;20296;-63
2022/04/04 11:35:07;;;;;;;8.53;6.30;;;;;;;;;;4998532;28;20216;-63
2022/04/04 11:37:41;;;;;;;6.57;5.90;;;;;;;;;;5025084;28;20258;-63
2022/04/04 11:40:13;;;;;;;7.27;6.00;;;;;;;;;;5048611;28;20205;-63
2022/04/04 11:42:45;;;;;;;6.33;5.73;;;;;;;;;;5023995;28;20253;-64
2022/04/04 11:45:16;;;;;;;6.43;5.83;;;;;;;;;;5023327;28;20214;-64
2022/04/04 11:47:54;;;;;;;7.30;6.60;;;;;;;;;;5028798;28;20252;-64
2022/04/04 11:50:25;;;;;;;7.10;6.40;;;;;;;;;;5028065;28;20230;-63
2022/04/04 11:52:54;;;;;;;9.07;6.90;;;;;;;;;;5021441;28;20235;-64
2022/04/04 11:55:25;;;;;;;6.93;6.23;;;;;;;;;;5024739;28;20199;-64
2022/04/04 11:57:57;;;;;;;7.23;6.53;;;;;;;;;;5034120;28;20206;-64
2022/04/04 12:00:31;;;;;;;7.13;6.43;;;;;;;;;;5028950;28;20203;-63
2022/04/04 12:03:11;;;;;;;7.17;6.50;;;;;;;;;;5033450;28;20692;-64
2022/04/04 12:05:42;;;;;;;6.73;6.10;;;;;;;;;;5026763;28;20260;-63
2022/04/04 12:08:10;;;;;;;7.57;6.57;;;;;;;;;;5024996;28;20199;-64
2022/04/04 12:10:38;;;;;;;8.20;7.40;;;;;;;;;;5025736;28;20246;-64
2022/04/04 12:13:20;;;;;;;7.43;6.27;;;;;;;;;;5024789;28;20704;-64
2022/04/04 12:15:49;;;;;;;7.77;6.60;;;;;;;;;;5020787;28;20210;-64
2022/04/04 12:18:24;;;;;;;6.67;5.97;;;;;;;;;;5023787;28;20241;-64
2022/04/04 12:20:53;;;;;;;6.73;5.97;;;;;;;;;;5022677;28;20203;-63
2022/04/04 12:26:10;;;;;;;7.40;6.60;;;;;;;;;;5030222;28;20559;-63
2022/04/04 12:28:39;;;;;;;8.23;6.43;;;;;;;;;;5023166;28;20238;-63
2022/04/04 12:31:10;;;;;;;6.87;5.67;;;;;;;;;;5030523;28;20199;-63
2022/04/04 12:33:38;;;;;;;7.70;6.57;;;;;;;;;;5019794;28;20742;-62
2022/04/04 12:36:06;;;;;;;7.13;6.07;;;;;;;;;;5018485;28;20202;-64
2022/04/04 12:38:37;;;;;;;7.63;6.30;;;;;;;;;;5029809;28;20202;-63
2022/04/04 12:41:15;;;;;;;7.97;6.70;;;;;;;;;;5026335;28;20253;-62
2022/04/04 12:43:47;;;;;;;7.40;6.60;;;;;;;;;;5033876;28;20210;-63
2022/04/04 12:46:23;;;;;;;7.17;6.47;;;;;;;;;;5018939;28;20206;-64
2022/04/04 12:49:10;;;;;;;6.17;5.50;;;;;;;;;;4995854;28;20242;-64
2022/04/04 12:51:38;;;;;;;8.03;6.77;;;;;;;;;;5008354;28;20231;-64
2022/04/04 12:54:05;;;;;;;6.13;5.47;;;;;;;;;;5009449;28;20196;-65
2022/04/04 12:56:47;;;;;;;6.90;5.83;;;;;;;;;;5008655;28;20214;-63
2022/04/04 12:59:14;;;;;;;6.67;6.07;;;;;;;;;;5012496;28;20210;-65
2022/04/04 13:01:42;;;;;;;6.27;5.63;;;;;;;;;;5010073;28;20234;-64
2022/04/04 13:04:20;;;;;;;7.23;6.03;;;;;;;;;;5014886;28;20235;-64
2022/04/04 13:06:48;;;;;;;6.33;5.70;;;;;;;;;;5009553;28;20301;-65
2022/04/04 13:09:25;;;;;;;7.00;5.80;;;;;;;;;;5015737;28;20231;-65
2022/04/04 13:11:54;;;;;;;6.50;5.67;;;;;;;;;;5018892;28;20562;-66
2022/04/04 13:14:22;;;;;;;6.37;5.77;;;;;;;;;;5017940;28;20211;-64
2022/04/04 13:16:56;;;;;;;5.43;4.90;;;;;;;;;;5016224;28;20691;-65
2022/04/04 13:19:25;;;;;;;5.60;4.97;;;;;;;;;;5014372;28;20218;-66
2022/04/04 13:21:53;;;;;;;6.13;5.57;;;;;;;;;;5017178;28;20237;-64
2022/04/04 13:24:21;;;;;;;6.77;5.53;;;;;;;;;;5013245;28;20214;-65
2022/04/04 13:26:48;;;;;;;6.37;5.30;;;;;;;;;;5016269;28;20207;-64
2022/04/04 13:29:17;;;;;;;6.40;5.50;;;;;;;;;;5021288;28;20617;-63
2022/04/04 13:31:45;;;;;;;5.10;4.60;;;;;;;;;;5021624;28;20222;-64
2022/04/04 13:34:13;;;;;;;5.70;5.20;;;;;;;;;;5017457;28;20251;-65
2022/04/04 13:36:40;;;;;;;6.13;5.33;;;;;;;;;;5013867;28;20214;-65
2022/04/04 13:39:11;;;;;;;5.40;4.90;;;;;;;;;;5027546;28;20210;-63
2022/04/04 13:41:39;;;;;;;5.80;4.77;;;;;;;;;;5022210;28;20252;-63
2022/04/04 13:44:07;;;;;;;5.90;5.10;;;;;;;;;;5018080;28;20876;-65
2022/04/04 13:46:35;;;;;;;5.80;4.77;;;;;;;;;;5015987;28;20644;-65
2022/04/04 13:49:02;;;;;;;5.20;4.60;;;;;;;;;;5016101;28;20246;-65
2022/04/04 13:51:30;;;;;;;5.97;4.70;;;;;;;;;;5014727;28;20973;-65
2022/04/04 13:54:02;;;;;;;6.17;5.57;;;;;;;;;;5019362;28;20808;-64
2022/04/04 13:56:31;;;;;;;7.03;5.60;;;;;;;;;;5020478;28;20623;-63
2022/04/04 13:59:00;;;;;;;6.17;5.13;;;;;;;;;;5027314;28;20218;-65
2022/04/04 14:01:28;;;;;;;5.67;5.17;;;;;;;;;;5018701;28;20248;-64
2022/04/04 14:03:59;;;;;;;5.27;4.77;;;;;;;;;;5022701;28;20245;-62
2022/04/04 14:06:26;;;;;;;5.53;5.03;;;;;;;;;;5021597;28;20570;-64
2022/04/04 14:08:54;;;;;;;5.13;4.63;;;;;;;;;;5028450;28;20217;-63
2022/04/04 14:11:21;;;;;;;5.30;4.80;;;;;;;;;;5019234;28;20219;-64
2022/04/04 14:13:50;;;;;;;4.70;4.30;;;;;;;;;;5019504;28;20583;-65
2022/04/04 14:16:17;;;;;;;6.53;4.93;;;;;;;;;;5027391;28;20269;-64
2022/04/04 14:18:45;;;;;;;5.63;5.13;;;;;;;;;;5024638;28;20209;-63
2022/04/04 14:21:14;;;;;;;5.43;4.93;;;;;;;;;;5023366;28;20207;-64
2022/04/04 14:23:43;;;;;;;5.33;4.73;;;;;;;;;;5006862;28;20576;-63
2022/04/04 14:26:15;;;;;;;4.90;4.37;;;;;;;;;;5010073;28;20211;-66
2022/04/04 14:28:43;;;;;;;5.17;4.77;;;;;;;;;;5018847;28;23285;-63
2022/04/04 14:31:11;;;;;;;4.97;4.47;;;;;;;;;;5018820;28;20604;-65
2022/04/04 14:33:39;;;;;;;8.00;5.00;;;;;;;;;;5012304;28;20209;-65
2022/04/04 14:36:08;;;;;;;5.03;4.50;;;;;;;;;;5011057;28;20215;-64
2022/04/04 14:38:38;;;;;;;5.27;4.77;;;;;;;;;;5017043;28;20265;-64
2022/04/04 14:41:08;;;;;;;6.77;4.93;;;;;;;;;;5024018;28;20485;-63
2022/04/04 14:43:38;;;;;;;4.43;4.03;;;;;;;;;;5014700;28;20846;-62
2022/04/04 14:46:05;;;;;;;5.83;4.80;;;;;;;;;;5033027;28;20671;-64
2022/04/04 14:48:33;;;;;;;4.97;4.47;;;;;;;;;;5011660;28;20222;-65
2022/04/04 14:51:00;;;;;;;4.73;4.33;;;;;;;;;;5013893;28;20242;-66
2022/04/04 14:53:27;;;;;;;4.77;4.37;;;;;;;;;;5014343;28;20202;-64
2022/04/04 14:56:05;;;;;;;4.17;3.87;;;;;;;;;;4999659;28;20207;-66